Time;durP1;ratioP1;P1;durP2;ratioP2;P2;SDS_P1;SDS_P2;PMS_P1;PMS_P2;Temp;Humidity;BMP_temperature;BMP_pressure;BME280_temperature;BME280_humidity;BME280_pressure;Samples;Min_cycle;Max_cycle;Signal;HPM_P1;HPM_P2
2022/11/16 00:00:32;;;;;;;3.95;1.55;;;;;;;;;;5109713;28;20413;-75
2022/11/16 00:03:03;;;;;;;3.80;1.73;;;;;;;;;;5109689;28;20052;-73
2022/11/16 00:05:33;;;;;;;5.72;1.67;;;;;;;;;;5109785;28;20058;-71
2022/11/16 00:08:02;;;;;;;6.88;1.58;;;;;;;;;;5108420;28;20058;-75
2022/11/16 00:10:32;;;;;;;5.57;2.00;;;;;;;;;;5109523;28;20059;-71
2022/11/16 00:13:02;;;;;;;4.72;1.80;;;;;;;;;;5109632;28;20044;-75
2022/11/16 00:15:32;;;;;;;3.70;2.03;;;;;;;;;;5109481;28;20043;-74
2022/11/16 00:18:02;;;;;;;5.45;1.70;;;;;;;;;;5109178;28;20502;-70
2022/11/16 00:20:32;;;;;;;4.70;1.67;;;;;;;;;;5111407;28;20039;-70
2022/11/16 00:23:02;;;;;;;2.83;1.60;;;;;;;;;;5113591;28;20062;-73
2022/11/16 00:25:33;;;;;;;7.85;2.13;;;;;;;;;;5109588;28;20490;-74
2022/11/16 00:28:03;;;;;;;10.00;2.60;;;;;;;;;;5109320;28;20494;-71
2022/11/16 00:30:33;;;;;;;10.68;1.77;;;;;;;;;;5109325;28;20044;-72
2022/11/16 00:33:04;;;;;;;4.80;1.83;;;;;;;;;;5108946;28;20048;-72
2022/11/16 00:35:38;;;;;;;8.27;1.98;;;;;;;;;;5108022;28;20137;-75
2022/11/16 00:38:08;;;;;;;3.10;1.80;;;;;;;;;;5109195;28;20135;-71
2022/11/16 00:40:38;;;;;;;7.05;1.98;;;;;;;;;;5109292;28;20482;-74
2022/11/16 00:43:09;;;;;;;2.90;1.75;;;;;;;;;;5109444;28;20520;-72
2022/11/16 00:45:41;;;;;;;5.00;1.88;;;;;;;;;;5108320;28;20055;-71
2022/11/16 00:48:12;;;;;;;2.47;1.25;;;;;;;;;;5107718;27;20534;-72
2022/11/16 00:50:44;;;;;;;5.43;2.13;;;;;;;;;;5108043;27;20054;-70
2022/11/16 00:53:18;;;;;;;9.27;1.90;;;;;;;;;;5108519;27;20051;-71
2022/11/16 00:55:48;;;;;;;4.00;1.80;;;;;;;;;;5108111;27;20051;-73
2022/11/16 00:58:20;;;;;;;5.22;1.50;;;;;;;;;;5106818;28;20063;-72
2022/11/16 01:01:02;;;;;;;3.42;1.75;;;;;;;;;;5107242;27;20051;-70
2022/11/16 01:03:34;;;;;;;6.80;1.90;;;;;;;;;;5107322;28;20525;-71
2022/11/16 01:06:10;;;;;;;4.70;1.67;;;;;;;;;;5106463;28;20058;-71
2022/11/16 01:08:41;;;;;;;4.60;1.90;;;;;;;;;;5108276;28;20051;-71
2022/11/16 01:14:05;;;;;;;2.80;1.75;;;;;;;;;;5106961;28;20101;-74
2022/11/16 01:16:36;;;;;;;4.55;1.63;;;;;;;;;;5107034;28;20044;-72
2022/11/16 01:19:06;;;;;;;4.03;1.42;;;;;;;;;;5106694;28;20560;-72
2022/11/16 01:21:38;;;;;;;3.40;1.90;;;;;;;;;;5106861;28;20054;-72
2022/11/16 01:24:08;;;;;;;3.30;1.85;;;;;;;;;;5088757;28;20055;-72
2022/11/16 01:26:38;;;;;;;3.30;1.70;;;;;;;;;;5106235;28;20047;-73
2022/11/16 01:29:08;;;;;;;4.35;1.30;;;;;;;;;;5108155;28;20521;-73
2022/11/16 01:31:41;;;;;;;3.28;1.80;;;;;;;;;;5106972;27;20425;-73
2022/11/16 01:34:11;;;;;;;4.75;1.77;;;;;;;;;;5107774;28;20039;-71
2022/11/16 01:36:41;;;;;;;4.32;1.60;;;;;;;;;;5106681;27;20514;-73
2022/11/16 01:39:12;;;;;;;3.55;1.60;;;;;;;;;;5105832;28;20344;-74
2022/11/16 01:41:53;;;;;;;3.45;1.88;;;;;;;;;;5107378;27;20048;-72
2022/11/16 01:44:32;;;;;;;3.10;1.73;;;;;;;;;;5108302;28;20040;-71
2022/11/16 01:47:11;;;;;;;8.65;2.00;;;;;;;;;;5106658;28;20506;-74
2022/11/16 01:49:46;;;;;;;2.60;1.73;;;;;;;;;;5107716;28;20043;-71
2022/11/16 01:52:25;;;;;;;3.25;1.80;;;;;;;;;;5106127;28;20078;-69
2022/11/16 01:54:57;;;;;;;6.10;1.83;;;;;;;;;;5107524;28;20384;-70
2022/11/16 01:57:35;;;;;;;2.88;1.50;;;;;;;;;;5107100;28;20498;-70
2022/11/16 02:00:10;;;;;;;7.35;2.45;;;;;;;;;;5105745;28;20084;-72
2022/11/16 02:03:03;;;;;;;2.70;1.40;;;;;;;;;;5106128;27;20063;-73
2022/11/16 02:05:51;;;;;;;4.18;1.70;;;;;;;;;;5106636;28;20054;-70
2022/11/16 02:11:58;;;;;;;2.47;1.63;;;;;;;;;;5106375;28;20047;-75
2022/11/16 02:14:40;;;;;;;2.70;1.80;;;;;;;;;;5104824;27;20517;-72
2022/11/16 02:17:38;;;;;;;3.83;1.65;;;;;;;;;;5105442;28;20082;-70
2022/11/16 02:20:57;;;;;;;4.25;1.58;;;;;;;;;;5106061;28;20442;-69
2022/11/16 02:23:33;;;;;;;2.92;1.52;;;;;;;;;;5095339;28;20526;-70
2022/11/16 02:26:18;;;;;;;3.92;1.63;;;;;;;;;;5107251;28;20533;-74
2022/11/16 02:29:27;;;;;;;9.48;2.05;;;;;;;;;;5107410;28;20051;-70
2022/11/16 02:32:23;;;;;;;5.85;1.85;;;;;;;;;;5106776;28;20060;-72
2022/11/16 02:35:04;;;;;;;2.75;1.42;;;;;;;;;;5106001;28;20071;-70
2022/11/16 02:37:39;;;;;;;6.10;1.73;;;;;;;;;;5106618;28;20054;-72
2022/11/16 02:40:13;;;;;;;5.55;1.73;;;;;;;;;;5106506;28;20043;-73
2022/11/16 02:42:53;;;;;;;6.95;1.73;;;;;;;;;;5106980;28;20472;-71
2022/11/16 02:45:27;;;;;;;2.65;1.70;;;;;;;;;;5106540;28;20074;-71
2022/11/16 02:48:03;;;;;;;9.32;1.60;;;;;;;;;;5105790;28;20059;-74
2022/11/16 02:50:36;;;;;;;4.07;1.60;;;;;;;;;;5105606;28;20047;-72
2022/11/16 02:53:06;;;;;;;5.95;1.50;;;;;;;;;;5106299;27;20052;-71
2022/11/16 02:55:37;;;;;;;7.88;1.67;;;;;;;;;;5106474;28;20056;-71
2022/11/16 02:58:10;;;;;;;2.42;1.42;;;;;;;;;;5105497;28;20541;-73
2022/11/16 03:00:46;;;;;;;5.15;1.50;;;;;;;;;;5106642;28;20047;-74
2022/11/16 03:03:38;;;;;;;3.17;1.30;;;;;;;;;;5105087;28;20051;-74
2022/11/16 03:06:20;;;;;;;1.75;1.20;;;;;;;;;;5107025;28;20043;-74
2022/11/16 03:09:07;;;;;;;2.30;1.40;;;;;;;;;;5105824;28;20447;-74
2022/11/16 03:11:59;;;;;;;8.27;1.60;;;;;;;;;;5106725;28;20523;-69
2022/11/16 03:14:50;;;;;;;8.50;1.42;;;;;;;;;;5113557;28;20051;-71
2022/11/16 03:17:29;;;;;;;4.15;1.45;;;;;;;;;;5107262;28;20383;-72
2022/11/16 03:20:17;;;;;;;3.13;1.42;;;;;;;;;;5104768;28;20047;-75
2022/11/16 03:22:58;;;;;;;4.20;1.38;;;;;;;;;;5106404;28;20044;-72
2022/11/16 03:25:37;;;;;;;5.07;1.50;;;;;;;;;;5105843;28;20058;-72
2022/11/16 03:28:24;;;;;;;2.92;1.50;;;;;;;;;;5109586;27;20052;-73
2022/11/16 03:31:27;;;;;;;4.40;2.00;;;;;;;;;;5108894;28;20040;-73
2022/11/16 03:34:03;;;;;;;4.75;1.75;;;;;;;;;;5109490;28;20087;-72
2022/11/16 03:36:38;;;;;;;1.98;1.63;;;;;;;;;;5110170;28;20526;-70
2022/11/16 03:39:16;;;;;;;2.72;1.27;;;;;;;;;;5108774;28;20600;-72
2022/11/16 03:41:49;;;;;;;7.45;1.80;;;;;;;;;;5109561;27;20048;-72
2022/11/16 03:44:20;;;;;;;3.28;1.58;;;;;;;;;;5109254;27;20048;-72
2022/11/16 03:46:51;;;;;;;3.78;1.48;;;;;;;;;;5108992;28;20039;-72
2022/11/16 03:49:23;;;;;;;4.20;1.35;;;;;;;;;;5108510;28;20051;-74
2022/11/16 03:51:54;;;;;;;3.85;1.42;;;;;;;;;;5108741;28;20070;-73
2022/11/16 03:54:24;;;;;;;3.28;1.23;;;;;;;;;;5091910;28;20450;-74
2022/11/16 03:56:54;;;;;;;2.50;1.20;;;;;;;;;;5108874;28;20060;-75
2022/11/16 03:59:24;;;;;;;3.28;1.38;;;;;;;;;;5108288;28;20457;-70
2022/11/16 04:01:54;;;;;;;4.57;1.30;;;;;;;;;;5109826;28;20070;-71
2022/11/16 04:24:23;;;;;;;3.22;1.27;;;;;;;;;;5107792;27;20059;-75
2022/11/16 04:29:49;;;;;;;4.45;1.42;;;;;;;;;;5108533;27;20052;-71
2022/11/16 04:38:36;;;;;;;3.83;1.30;;;;;;;;;;5107811;28;20063;-71
2022/11/16 04:42:13;;;;;;;4.68;1.30;;;;;;;;;;5107564;28;20059;-73
2022/11/16 04:44:21;;;;;;;2.25;1.30;;;;;;;;;;5107244;28;20055;-71
2022/11/16 04:47:07;;;;;;;3.60;1.40;;;;;;;;;;5107872;27;20074;-73
2022/11/16 04:49:39;;;;;;;2.50;1.48;;;;;;;;;;5107738;28;20051;-69
2022/11/16 04:52:30;;;;;;;5.25;1.50;;;;;;;;;;5107526;28;20048;-74
2022/11/16 04:55:05;;;;;;;8.80;1.38;;;;;;;;;;5108357;28;20169;-73
2022/11/16 04:57:45;;;;;;;1.92;1.10;;;;;;;;;;5108564;27;20430;-76
2022/11/16 05:00:22;;;;;;;4.00;1.35;;;;;;;;;;5108837;28;20059;-72
2022/11/16 05:02:59;;;;;;;2.00;1.30;;;;;;;;;;5106325;28;20055;-75
2022/11/16 05:05:33;;;;;;;2.30;1.17;;;;;;;;;;5108821;28;20055;-70
2022/11/16 05:08:05;;;;;;;3.45;1.50;;;;;;;;;;5108373;28;20047;-70
2022/11/16 05:10:44;;;;;;;4.10;1.38;;;;;;;;;;5107140;28;20062;-69
2022/11/16 05:13:19;;;;;;;3.50;1.30;;;;;;;;;;5108479;28;20056;-72
2022/11/16 05:15:52;;;;;;;4.10;1.17;;;;;;;;;;5108394;27;20514;-72
2022/11/16 05:18:30;;;;;;;4.00;1.35;;;;;;;;;;5107969;28;20518;-69
2022/11/16 05:21:06;;;;;;;1.95;0.98;;;;;;;;;;5107503;28;20059;-71
2022/11/16 05:26:32;;;;;;;2.13;1.27;;;;;;;;;;5106654;28;20426;-74
2022/11/16 05:29:08;;;;;;;2.38;1.13;;;;;;;;;;5107782;28;20410;-70
2022/11/16 05:31:42;;;;;;;6.38;1.30;;;;;;;;;;5107574;27;20517;-72
2022/11/16 05:34:14;;;;;;;3.30;1.00;;;;;;;;;;5107288;27;20055;-71
2022/11/16 05:36:46;;;;;;;4.13;1.10;;;;;;;;;;5107080;27;20426;-70
2022/11/16 05:39:18;;;;;;;6.55;1.35;;;;;;;;;;5107904;28;20067;-72
2022/11/16 05:41:52;;;;;;;2.45;1.40;;;;;;;;;;5107367;27;20048;-71
2022/11/16 05:44:23;;;;;;;2.17;0.82;;;;;;;;;;5107505;28;20048;-72
2022/11/16 05:46:55;;;;;;;2.60;0.95;;;;;;;;;;5106495;28;20056;-72
2022/11/16 05:49:29;;;;;;;1.48;0.90;;;;;;;;;;5106876;27;20497;-70
2022/11/16 05:52:02;;;;;;;1.67;0.77;;;;;;;;;;5088834;28;20054;-69
2022/11/16 05:54:33;;;;;;;2.47;0.82;;;;;;;;;;5106405;28;20059;-72
2022/11/16 05:57:05;;;;;;;2.90;0.80;;;;;;;;;;5106385;28;20058;-73
2022/11/16 05:59:36;;;;;;;1.70;0.98;;;;;;;;;;5106392;27;21133;-70
2022/11/16 06:02:08;;;;;;;2.50;1.10;;;;;;;;;;5106545;27;20458;-70
2022/11/16 06:04:39;;;;;;;2.47;0.93;;;;;;;;;;5106411;28;20051;-72
2022/11/16 06:07:13;;;;;;;2.53;0.80;;;;;;;;;;5108381;28;20359;-73
2022/11/16 06:09:44;;;;;;;4.85;0.80;;;;;;;;;;5108980;27;20052;-70
2022/11/16 06:12:21;;;;;;;2.03;0.93;;;;;;;;;;5112973;27;20047;-69
2022/11/16 06:14:52;;;;;;;5.70;1.20;;;;;;;;;;5109646;28;20059;-72
2022/11/16 06:17:23;;;;;;;1.73;0.98;;;;;;;;;;5107458;28;20048;-70
2022/11/16 06:19:54;;;;;;;1.70;0.85;;;;;;;;;;5106226;27;20418;-70
2022/11/16 06:22:25;;;;;;;1.65;1.00;;;;;;;;;;5105889;28;20067;-70
2022/11/16 06:24:57;;;;;;;3.25;1.10;;;;;;;;;;5105533;27;20043;-70
2022/11/16 06:27:28;;;;;;;2.60;1.17;;;;;;;;;;5105655;27;20047;-73
2022/11/16 06:29:59;;;;;;;2.55;1.23;;;;;;;;;;5106196;28;20054;-74
2022/11/16 06:32:32;;;;;;;2.08;1.33;;;;;;;;;;5105664;27;20860;-73
2022/11/16 06:35:05;;;;;;;3.08;1.15;;;;;;;;;;5106113;28;20070;-72
2022/11/16 06:37:37;;;;;;;4.03;1.40;;;;;;;;;;5105876;28;20063;-72
2022/11/16 06:40:10;;;;;;;2.47;1.30;;;;;;;;;;5106669;28;20602;-70
2022/11/16 06:42:43;;;;;;;3.33;1.13;;;;;;;;;;5106995;28;20044;-72
2022/11/16 06:45:15;;;;;;;1.83;1.02;;;;;;;;;;5106128;27;20062;-70
2022/11/16 06:47:53;;;;;;;2.92;1.13;;;;;;;;;;5089953;28;20069;-70
2022/11/16 06:50:24;;;;;;;2.15;1.45;;;;;;;;;;5105276;27;20048;-72
2022/11/16 06:52:55;;;;;;;3.17;1.40;;;;;;;;;;5105808;28;20070;-72
2022/11/16 06:55:27;;;;;;;3.95;1.13;;;;;;;;;;5105439;28;20066;-72
2022/11/16 06:57:58;;;;;;;2.35;1.40;;;;;;;;;;5105640;27;20058;-72
2022/11/16 07:00:32;;;;;;;3.58;1.38;;;;;;;;;;5106093;28;20059;-74
2022/11/16 07:03:04;;;;;;;4.95;1.42;;;;;;;;;;5104670;28;20059;-70
2022/11/16 07:05:39;;;;;;;4.50;1.23;;;;;;;;;;5106582;28;20044;-71
2022/11/16 07:08:14;;;;;;;4.18;1.00;;;;;;;;;;5105512;28;20052;-70
2022/11/16 07:10:45;;;;;;;2.70;1.13;;;;;;;;;;5104826;28;20056;-73
2022/11/16 07:13:15;;;;;;;4.80;1.42;;;;;;;;;;5104729;28;20052;-72
2022/11/16 07:15:45;;;;;;;2.85;1.27;;;;;;;;;;5106593;28;20059;-70
2022/11/16 07:18:15;;;;;;;2.40;1.30;;;;;;;;;;5088782;28;20056;-71
2022/11/16 07:20:45;;;;;;;2.42;1.40;;;;;;;;;;5106685;28;20052;-73
2022/11/16 07:23:16;;;;;;;3.35;1.52;;;;;;;;;;5106062;28;20423;-71
2022/11/16 07:25:46;;;;;;;1.50;1.20;;;;;;;;;;5105687;28;20051;-74
2022/11/16 07:28:30;;;;;;;2.30;1.55;;;;;;;;;;5105338;28;20055;-72
2022/11/16 07:31:06;;;;;;;1.42;1.00;;;;;;;;;;5105598;28;20054;-72
2022/11/16 07:33:38;;;;;;;2.17;1.38;;;;;;;;;;5105441;28;20534;-72
2022/11/16 07:36:26;;;;;;;2.00;1.50;;;;;;;;;;5112029;28;20051;-73
2022/11/16 07:38:56;;;;;;;3.45;1.30;;;;;;;;;;5104654;28;20051;-72
2022/11/16 07:41:26;;;;;;;3.70;1.65;;;;;;;;;;5105464;28;20051;-70
2022/11/16 07:44:10;;;;;;;2.22;1.50;;;;;;;;;;5105066;28;20635;-70
2022/11/16 07:46:42;;;;;;;8.07;1.67;;;;;;;;;;5105376;28;20040;-70
2022/11/16 07:49:18;;;;;;;3.35;1.60;;;;;;;;;;5105500;28;20062;-70
2022/11/16 07:51:57;;;;;;;3.28;1.70;;;;;;;;;;5105109;28;20059;-70
2022/11/16 07:54:53;;;;;;;3.47;1.80;;;;;;;;;;5105002;28;20514;-70
2022/11/16 07:57:25;;;;;;;4.63;2.00;;;;;;;;;;5105249;28;20052;-70
2022/11/16 07:59:59;;;;;;;3.97;1.60;;;;;;;;;;5105182;28;20536;-69
2022/11/16 08:02:40;;;;;;;3.47;2.15;;;;;;;;;;5108365;28;20425;-68
2022/11/16 08:05:17;;;;;;;3.13;1.70;;;;;;;;;;5104503;28;20055;-72
2022/11/16 08:07:49;;;;;;;2.75;1.77;;;;;;;;;;5105011;28;20043;-74
2022/11/16 08:10:23;;;;;;;4.63;2.10;;;;;;;;;;5105514;28;20055;-69
2022/11/16 08:12:55;;;;;;;3.83;1.80;;;;;;;;;;5106468;28;20040;-71
2022/11/16 08:27:42;;;;;;;4.07;1.73;;;;;;;;;;5125151;27;20427;-70
2022/11/16 08:30:13;;;;;;;5.65;1.90;;;;;;;;;;5122710;28;20055;-70
2022/11/16 08:32:44;;;;;;;5.20;2.15;;;;;;;;;;5123066;28;20043;-70
2022/11/16 08:35:15;;;;;;;5.50;2.20;;;;;;;;;;5139247;27;20059;-70
2022/11/16 08:37:46;;;;;;;6.53;1.63;;;;;;;;;;5140188;27;20059;-70
2022/11/16 08:40:16;;;;;;;4.63;1.98;;;;;;;;;;5122534;28;20429;-70
2022/11/16 08:42:47;;;;;;;4.65;2.00;;;;;;;;;;5123150;28;20055;-70
2022/11/16 08:45:17;;;;;;;4.32;1.77;;;;;;;;;;5123817;28;20051;-71
2022/11/16 08:47:47;;;;;;;4.00;1.40;;;;;;;;;;5123983;28;20039;-70
2022/11/16 08:50:27;;;;;;;3.78;1.60;;;;;;;;;;5122376;28;20055;-70
2022/11/16 08:53:01;;;;;;;3.10;1.42;;;;;;;;;;5122653;28;20062;-70
2022/11/16 08:55:32;;;;;;;5.10;1.88;;;;;;;;;;5122097;28;20051;-71
2022/11/16 08:58:02;;;;;;;3.72;1.70;;;;;;;;;;5122413;28;20076;-70
2022/11/16 09:00:32;;;;;;;5.85;2.35;;;;;;;;;;5139318;27;20044;-70
2022/11/16 09:03:01;;;;;;;;;;;;;;;;;;5123781;28;20047;-71
2022/11/16 09:05:31;;;;;;;3.22;1.42;;;;;;;;;;5123993;28;19923;-70
2022/11/16 09:08:01;;;;;;;1.98;1.27;;;;;;;;;;5123462;28;20152;-70
2022/11/16 09:10:30;;;;;;;;;;;;;;;;;;5124047;28;20043;-70
2022/11/16 09:13:00;;;;;;;3.25;1.60;;;;;;;;;;5123704;28;19920;-69
2022/11/16 09:15:30;;;;;;;;;;;;;;;;;;5123798;28;20051;-70
2022/11/16 09:18:00;;;;;;;2.97;1.60;;;;;;;;;;5123649;28;19927;-70
2022/11/16 09:20:30;;;;;;;4.32;1.80;;;;;;;;;;5123057;28;20043;-71
2022/11/16 09:22:59;;;;;;;5.95;1.70;;;;;;;;;;5123108;28;20048;-74
2022/11/16 09:25:28;;;;;;;;;;;;;;;;;;5125998;27;20509;-70
2022/11/16 09:27:59;;;;;;;3.85;1.50;;;;;;;;;;5134132;27;19919;-70
2022/11/16 09:30:30;;;;;;;4.30;1.70;;;;;;;;;;5128536;27;20051;-70
2022/11/16 09:33:00;;;;;;;4.50;1.60;;;;;;;;;;5130116;27;20077;-71
2022/11/16 09:35:30;;;;;;;4.05;1.80;;;;;;;;;;5129543;27;20062;-71
2022/11/16 09:38:00;;;;;;;4.05;1.50;;;;;;;;;;5130560;27;20043;-70
2022/11/16 09:40:40;;;;;;;2.25;1.50;;;;;;;;;;5129881;27;20043;-70
2022/11/16 09:43:45;;;;;;;9.05;1.77;;;;;;;;;;5129389;27;20055;-70
2022/11/16 09:46:33;;;;;;;2.10;1.30;;;;;;;;;;5130173;27;20054;-72
2022/11/16 09:49:21;;;;;;;10.13;2.10;;;;;;;;;;5129538;27;20509;-70
2022/11/16 09:51:54;;;;;;;5.68;1.83;;;;;;;;;;5130370;27;20051;-71
2022/11/16 09:54:28;;;;;;;5.18;2.20;;;;;;;;;;5129631;27;20421;-70
2022/11/16 09:57:02;;;;;;;7.93;1.70;;;;;;;;;;5129100;27;20058;-70
2022/11/16 09:59:52;;;;;;;11.05;2.70;;;;;;;;;;5129376;27;20047;-70
2022/11/16 10:02:42;;;;;;;6.07;2.58;;;;;;;;;;5128436;27;20054;-70
2022/11/16 10:05:26;;;;;;;6.18;2.75;;;;;;;;;;5129168;27;20039;-70
2022/11/16 10:08:12;;;;;;;6.28;1.98;;;;;;;;;;5129806;27;20047;-73
2022/11/16 10:11:03;;;;;;;7.43;3.50;;;;;;;;;;5129988;27;20039;-70
2022/11/16 10:14:18;;;;;;;5.05;2.28;;;;;;;;;;5129544;27;20039;-70
2022/11/16 10:17:32;;;;;;;4.05;2.08;;;;;;;;;;5110954;27;20055;-72
2022/11/16 10:20:16;;;;;;;4.75;2.33;;;;;;;;;;5099947;27;20531;-71
2022/11/16 10:23:18;;;;;;;4.75;2.42;;;;;;;;;;5128623;27;20054;-70
2022/11/16 10:26:14;;;;;;;6.60;2.17;;;;;;;;;;5124482;27;20047;-78
2022/11/16 10:29:16;;;;;;;6.97;2.60;;;;;;;;;;5129390;27;20055;-71
2022/11/16 10:32:14;;;;;;;6.50;2.17;;;;;;;;;;5128249;27;20047;-71
2022/11/16 10:35:13;;;;;;;6.35;2.75;;;;;;;;;;5129441;27;20054;-71
2022/11/16 10:37:49;;;;;;;4.15;2.10;;;;;;;;;;5121663;27;20055;-71
2022/11/16 10:40:25;;;;;;;7.22;2.83;;;;;;;;;;5127822;27;20074;-71
2022/11/16 10:43:15;;;;;;;5.68;1.98;;;;;;;;;;5128863;27;20051;-71
2022/11/16 10:46:20;;;;;;;6.32;1.98;;;;;;;;;;5128758;27;20058;-71
2022/11/16 10:49:28;;;;;;;4.93;1.90;;;;;;;;;;5126045;27;20050;-71
2022/11/16 10:51:58;;;;;;;7.65;2.75;;;;;;;;;;5118904;27;20057;-71
2022/11/16 10:54:28;;;;;;;5.78;2.40;;;;;;;;;;5128265;27;20069;-75
2022/11/16 10:57:04;;;;;;;3.60;2.40;;;;;;;;;;5127969;27;20051;-73
2022/11/16 10:59:43;;;;;;;7.10;2.50;;;;;;;;;;5128843;27;20827;-71
2022/11/16 11:02:33;;;;;;;5.97;3.30;;;;;;;;;;5127552;27;20051;-72
2022/11/16 11:05:16;;;;;;;7.80;2.50;;;;;;;;;;5128011;27;20043;-71
2022/11/16 11:07:50;;;;;;;4.13;2.10;;;;;;;;;;5127936;27;20047;-72
2022/11/16 11:10:30;;;;;;;5.03;2.05;;;;;;;;;;5126536;27;20595;-71
2022/11/16 11:13:07;;;;;;;5.72;2.70;;;;;;;;;;5127824;27;20085;-73
2022/11/16 11:15:39;;;;;;;5.70;2.40;;;;;;;;;;5127594;27;20054;-72
2022/11/16 11:18:18;;;;;;;6.30;2.88;;;;;;;;;;5126791;27;20519;-72
2022/11/16 11:21:25;;;;;;;6.22;2.15;;;;;;;;;;5127767;27;20047;-70
2022/11/16 11:23:55;;;;;;;9.00;3.10;;;;;;;;;;5043757;28;20053;-71
2022/11/16 11:27:00;;;;;;;5.93;2.60;;;;;;;;;;5125739;27;20055;-72
2022/11/16 11:29:39;;;;;;;7.03;2.22;;;;;;;;;;5127634;27;20039;-71
2022/11/16 11:32:18;;;;;;;5.40;1.90;;;;;;;;;;5126790;27;20493;-71
2022/11/16 11:34:53;;;;;;;4.38;2.17;;;;;;;;;;5125891;27;20505;-72
2022/11/16 11:37:34;;;;;;;3.55;1.98;;;;;;;;;;5125489;27;20047;-72
2022/11/16 11:40:25;;;;;;;4.63;2.30;;;;;;;;;;5127081;27;20046;-72
2022/11/16 11:42:59;;;;;;;4.10;1.65;;;;;;;;;;5127417;27;20501;-73
2022/11/16 11:45:44;;;;;;;5.93;1.65;;;;;;;;;;5127574;27;20035;-72
2022/11/16 11:48:33;;;;;;;5.30;2.00;;;;;;;;;;5127192;27;20042;-72
2022/11/16 11:51:08;;;;;;;5.53;1.58;;;;;;;;;;5126611;27;20047;-71
2022/11/16 11:53:44;;;;;;;3.97;1.73;;;;;;;;;;5127478;27;20421;-72
2022/11/16 11:56:14;;;;;;;3.78;1.40;;;;;;;;;;5127532;27;20046;-69
2022/11/16 11:58:47;;;;;;;3.53;1.30;;;;;;;;;;5127492;27;20533;-72
2022/11/16 12:01:20;;;;;;;2.42;1.42;;;;;;;;;;5125775;27;20559;-72
2022/11/16 12:04:25;;;;;;;3.15;1.75;;;;;;;;;;5127481;27;20397;-72
2022/11/16 12:07:15;;;;;;;6.25;1.67;;;;;;;;;;5093869;27;20062;-71
2022/11/16 12:10:20;;;;;;;3.97;1.45;;;;;;;;;;5126748;27;20047;-72
2022/11/16 12:13:05;;;;;;;3.58;1.52;;;;;;;;;;5127487;27;20047;-72
2022/11/16 12:15:50;;;;;;;3.78;2.00;;;;;;;;;;5127107;28;20396;-71
2022/11/16 12:18:38;;;;;;;5.72;1.63;;;;;;;;;;5127322;28;20044;-71
2022/11/16 12:21:12;;;;;;;3.65;1.60;;;;;;;;;;5126958;28;20062;-72
2022/11/16 12:23:54;;;;;;;1.52;1.13;;;;;;;;;;5127269;28;20051;-73
2022/11/16 12:26:33;;;;;;;5.20;2.10;;;;;;;;;;5127161;28;20215;-72
2022/11/16 12:29:26;;;;;;;5.25;1.60;;;;;;;;;;5127279;28;20051;-72
2022/11/16 12:32:02;;;;;;;5.05;1.42;;;;;;;;;;5126824;28;20047;-73
2022/11/16 12:34:51;;;;;;;4.47;1.77;;;;;;;;;;5126447;28;20055;-72
2022/11/16 12:37:39;;;;;;;4.03;1.38;;;;;;;;;;5126845;28;20050;-72
2022/11/16 12:40:53;;;;;;;5.18;1.30;;;;;;;;;;5126297;27;20055;-72
2022/11/16 12:43:45;;;;;;;4.85;1.40;;;;;;;;;;5071746;27;20051;-73
2022/11/16 12:46:39;;;;;;;4.68;1.48;;;;;;;;;;5125512;28;20504;-72
2022/11/16 12:49:32;;;;;;;2.55;1.40;;;;;;;;;;5127438;28;20055;-72
2022/11/16 12:52:34;;;;;;;4.10;1.60;;;;;;;;;;5126496;28;20047;-72
2022/11/16 12:55:15;;;;;;;5.00;1.98;;;;;;;;;;5082718;27;21117;-75
2022/11/16 12:57:57;;;;;;;3.90;1.00;;;;;;;;;;5127137;28;20066;-72
2022/11/16 13:00:34;;;;;;;4.93;1.10;;;;;;;;;;5125472;28;20051;-72
2022/11/16 13:03:14;;;;;;;1.77;0.73;;;;;;;;;;5128345;27;20402;-72
2022/11/16 13:05:53;;;;;;;6.57;0.93;;;;;;;;;;5130811;27;20054;-72
2022/11/16 13:08:26;;;;;;;1.35;0.82;;;;;;;;;;5130518;27;20058;-72
2022/11/16 13:11:24;;;;;;;3.30;0.63;;;;;;;;;;5130784;27;20042;-71
2022/11/16 13:14:00;;;;;;;3.03;0.82;;;;;;;;;;5123148;27;20055;-72
2022/11/16 13:16:30;;;;;;;;;;;;;;;;;;5131254;27;20043;-72
2022/11/16 13:19:03;;;;;;;2.70;0.65;;;;;;;;;;5128800;27;19920;-72
2022/11/16 13:21:35;;;;;;;5.22;0.90;;;;;;;;;;5130434;27;20069;-73
2022/11/16 13:24:06;;;;;;;4.90;1.10;;;;;;;;;;5130136;27;20405;-71
2022/11/16 13:26:51;;;;;;;2.80;0.80;;;;;;;;;;5130053;27;20070;-71
2022/11/16 13:29:32;;;;;;;3.25;0.90;;;;;;;;;;5130136;27;20031;-71
2022/11/16 13:32:14;;;;;;;5.00;1.27;;;;;;;;;;5129932;27;20051;-71
2022/11/16 13:34:45;;;;;;;7.60;1.25;;;;;;;;;;5129971;27;20043;-72
2022/11/16 13:37:38;;;;;;;3.67;1.10;;;;;;;;;;5129370;27;20054;-72
2022/11/16 13:40:19;;;;;;;23.77;18.33;;;;;;;;;;5119148;27;20058;-71
2022/11/16 13:43:18;;;;;;;3.20;1.30;;;;;;;;;;5130015;27;20521;-72
2022/11/16 13:45:48;;;;;;;2.33;1.20;;;;;;;;;;5114094;27;20055;-72
2022/11/16 13:48:21;;;;;;;3.20;1.23;;;;;;;;;;5129732;27;20062;-72
2022/11/16 13:51:02;;;;;;;4.95;1.40;;;;;;;;;;5129616;27;20413;-72
2022/11/16 13:53:37;;;;;;;3.83;1.17;;;;;;;;;;5129466;27;20476;-72
2022/11/16 13:56:47;;;;;;;8.48;2.00;;;;;;;;;;5129876;27;20043;-72
2022/11/16 13:59:27;;;;;;;3.33;1.30;;;;;;;;;;5127601;27;20062;-72
2022/11/16 14:02:27;;;;;;;3.38;1.33;;;;;;;;;;5127601;27;20507;-72
2022/11/16 14:05:05;;;;;;;4.13;1.40;;;;;;;;;;5107056;27;20055;-73
2022/11/16 14:07:41;;;;;;;2.47;1.10;;;;;;;;;;5129674;27;20761;-71
2022/11/16 14:10:32;;;;;;;3.63;1.48;;;;;;;;;;5129034;27;20354;-73
2022/11/16 14:13:04;;;;;;;2.95;1.13;;;;;;;;;;5119427;27;20059;-72
2022/11/16 14:15:37;;;;;;;6.78;1.70;;;;;;;;;;5128959;27;20829;-73
2022/11/16 14:18:08;;;;;;;3.63;1.33;;;;;;;;;;5129123;27;20584;-72
2022/11/16 14:20:40;;;;;;;8.88;1.55;;;;;;;;;;5128914;27;20051;-78
2022/11/16 14:23:19;;;;;;;7.80;1.40;;;;;;;;;;5129163;27;20386;-73
2022/11/16 14:26:12;;;;;;;3.35;1.52;;;;;;;;;;5129142;27;20070;-73
2022/11/16 14:28:48;;;;;;;6.45;1.50;;;;;;;;;;5126435;27;20062;-72
2022/11/16 14:31:28;;;;;;;3.20;1.30;;;;;;;;;;5128861;27;20066;-73
2022/11/16 14:33:59;;;;;;;4.63;1.25;;;;;;;;;;5128242;27;20500;-72
2022/11/16 14:36:42;;;;;;;5.88;1.35;;;;;;;;;;5128945;27;20035;-72
2022/11/16 14:39:26;;;;;;;4.65;0.93;;;;;;;;;;5128399;27;20047;-75
2022/11/16 14:42:02;;;;;;;8.32;1.77;;;;;;;;;;5128203;27;20513;-73
2022/11/16 14:44:37;;;;;;;6.18;1.27;;;;;;;;;;5128098;27;20513;-72
2022/11/16 14:47:36;;;;;;;2.83;1.05;;;;;;;;;;5128618;27;20050;-72
2022/11/16 14:50:20;;;;;;;3.42;1.10;;;;;;;;;;5126633;27;20074;-72
2022/11/16 14:52:56;;;;;;;2.58;1.40;;;;;;;;;;5128370;27;20043;-72
2022/11/16 14:55:27;;;;;;;3.97;1.67;;;;;;;;;;5128437;27;20054;-73
2022/11/16 14:58:10;;;;;;;3.22;1.40;;;;;;;;;;5128313;27;20042;-72
2022/11/16 15:00:40;;;;;;;5.45;1.73;;;;;;;;;;5128405;27;20050;-72
2022/11/16 15:03:11;;;;;;;6.25;1.30;;;;;;;;;;5127838;27;20057;-72
2022/11/16 15:05:46;;;;;;;6.68;1.50;;;;;;;;;;5128058;27;20043;-72
2022/11/16 15:08:22;;;;;;;;;;;;;;;;;;5128359;27;20058;-74
2022/11/16 15:10:52;;;;;;;4.75;1.05;;;;;;;;;;5128480;27;19923;-74
2022/11/16 15:13:24;;;;;;;3.33;0.77;;;;;;;;;;5127597;27;20051;-73
2022/11/16 15:16:14;;;;;;;4.80;0.70;;;;;;;;;;5127137;27;20046;-72
2022/11/16 15:18:59;;;;;;;3.00;0.70;;;;;;;;;;5127233;27;20051;-77
2022/11/16 15:21:29;;;;;;;0.55;0.55;;;;;;;;;;5127449;27;20405;-73
2022/11/16 15:23:59;;;;;;;0.88;0.45;;;;;;;;;;5125855;27;20055;-73
2022/11/16 15:26:52;;;;;;;3.55;0.52;;;;;;;;;;5127838;27;20051;-77
2022/11/16 15:29:24;;;;;;;0.68;0.40;;;;;;;;;;5127847;27;20050;-73
2022/11/16 15:31:54;;;;;;;0.98;0.55;;;;;;;;;;5127570;27;20047;-75
2022/11/16 15:34:27;;;;;;;0.60;0.43;;;;;;;;;;5127516;27;20043;-74
2022/11/16 15:36:57;;;;;;;1.88;0.93;;;;;;;;;;5127233;27;20047;-72
2022/11/16 15:39:33;;;;;;;2.72;0.40;;;;;;;;;;5127479;27;20050;-73
2022/11/16 15:42:03;;;;;;;1.65;0.32;;;;;;;;;;5127969;27;20500;-73
2022/11/16 15:44:33;;;;;;;2.33;0.57;;;;;;;;;;5126914;27;20050;-73
2022/11/16 15:47:03;;;;;;;0.63;0.50;;;;;;;;;;5127352;27;20039;-73
2022/11/16 15:49:37;;;;;;;2.50;0.50;;;;;;;;;;5126896;27;20440;-72
2022/11/16 15:52:10;;;;;;;1.23;0.50;;;;;;;;;;5127795;27;20047;-78
2022/11/16 15:57:29;;;;;;;1.73;0.40;;;;;;;;;;5127699;27;20047;-73
2022/11/16 15:59:59;;;;;;;0.80;0.30;;;;;;;;;;5126405;27;20412;-75
2022/11/16 16:02:31;;;;;;;1.40;0.50;;;;;;;;;;5128593;27;20062;-72
2022/11/16 16:05:01;;;;;;;2.88;0.25;;;;;;;;;;5127011;27;20532;-73
2022/11/16 16:07:39;;;;;;;0.32;0.30;;;;;;;;;;5126894;27;20054;-73
2022/11/16 16:10:23;;;;;;;2.05;0.55;;;;;;;;;;5126322;27;20054;-73
2022/11/16 16:12:55;;;;;;;1.98;0.45;;;;;;;;;;5125569;27;20532;-72
2022/11/16 16:15:35;;;;;;;2.05;0.50;;;;;;;;;;5127311;27;20054;-73
2022/11/16 16:18:39;;;;;;;1.92;0.25;;;;;;;;;;5130053;28;20035;-74
2022/11/16 16:21:08;;;;;;;1.48;0.22;;;;;;;;;;5127490;28;20058;-72
2022/11/16 16:23:53;;;;;;;0.70;0.30;;;;;;;;;;5127476;28;20046;-72
2022/11/16 16:26:24;;;;;;;1.20;0.20;;;;;;;;;;5127136;28;20553;-73
2022/11/16 16:28:54;;;;;;;0.80;0.30;;;;;;;;;;5127606;28;20501;-73
2022/11/16 16:31:24;;;;;;;0.98;0.65;;;;;;;;;;5127908;27;20062;-72
2022/11/16 16:33:54;;;;;;;0.47;0.20;;;;;;;;;;5127528;28;20043;-73
2022/11/16 16:36:24;;;;;;;0.30;0.30;;;;;;;;;;5126969;27;20501;-72
2022/11/16 16:38:55;;;;;;;2.63;0.30;;;;;;;;;;5130464;27;20054;-74
2022/11/16 16:41:29;;;;;;;1.15;0.40;;;;;;;;;;5131431;27;20039;-72